Time;durP1;ratioP1;P1;durP2;ratioP2;P2;SDS_P1;SDS_P2;PMS_P1;PMS_P2;Temp;Humidity;BMP_temperature;BMP_pressure;BME280_temperature;BME280_humidity;BME280_pressure;Samples;Min_cycle;Max_cycle;Signal;HPM_P1;HPM_P2
2023/03/25 00:00:58;;;;;;;1.75;1.13;;;9.90;83.70;;;;;;5008814;28;20077;-66
2023/03/25 00:03:28;;;;;;;0.00;0.00;;;9.90;84.10;;;;;;5008404;28;20034;-67
2023/03/25 00:05:56;;;;;;;0.05;0.05;;;9.90;84.10;;;;;;5009236;28;20404;-67
2023/03/25 00:08:24;;;;;;;0.00;0.00;;;9.90;84.20;;;;;;5008300;28;20439;-66
2023/03/25 00:10:53;;;;;;;0.35;0.35;;;9.90;84.30;;;;;;5004022;28;20045;-67
2023/03/25 00:13:20;;;;;;;1.65;0.85;;;9.90;84.30;;;;;;5006289;28;20045;-67
2023/03/25 00:15:47;;;;;;;0.38;0.38;;;9.90;84.30;;;;;;5008822;28;20038;-67
2023/03/25 00:18:13;;;;;;;0.30;0.30;;;9.90;84.60;;;;;;5008802;28;20157;-66
2023/03/25 00:20:39;;;;;;;0.00;0.00;;;9.90;84.40;;;;;;5001465;28;20042;-67
2023/03/25 00:23:06;;;;;;;0.00;0.00;;;9.90;84.30;;;;;;5007721;28;20506;-67
2023/03/25 00:25:32;;;;;;;0.00;0.00;;;9.90;84.40;;;;;;4989790;28;20065;-67
2023/03/25 00:27:58;;;;;;;0.63;0.63;;;9.80;85.00;;;;;;5008153;28;20038;-67
2023/03/25 00:30:24;;;;;;;0.00;0.00;;;9.80;85.60;;;;;;5003402;28;20038;-67
2023/03/25 00:32:51;;;;;;;0.00;0.00;;;9.70;86.00;;;;;;5012020;28;20050;-67
2023/03/25 00:35:21;;;;;;;0.82;0.80;;;9.70;86.20;;;;;;5006078;28;20042;-67
2023/03/25 00:37:58;;;;;;;0.25;0.25;;;9.70;86.40;;;;;;5009836;28;20076;-67
2023/03/25 00:40:27;;;;;;;0.20;0.20;;;9.60;86.60;;;;;;5011396;28;20116;-67
2023/03/25 00:42:53;;;;;;;7.55;2.72;;;9.60;86.70;;;;;;5006563;28;20076;-67
2023/03/25 00:45:19;;;;;;;0.85;0.75;;;9.60;86.80;;;;;;5011983;28;20050;-67
2023/03/25 00:47:45;;;;;;;0.08;0.08;;;9.60;86.60;;;;;;5011539;28;20552;-67
2023/03/25 00:50:11;;;;;;;28.38;0.98;;;9.60;86.60;;;;;;5007363;28;20066;-67
2023/03/25 00:52:37;;;;;;;2.40;1.35;;;9.60;86.50;;;;;;4981144;28;20046;-66
2023/03/25 00:55:03;;;;;;;0.00;0.00;;;9.60;86.30;;;;;;5012429;28;20045;-67
2023/03/25 00:57:29;;;;;;;0.00;0.00;;;9.60;86.40;;;;;;5005268;28;20566;-66
2023/03/25 00:59:54;;;;;;;9.48;0.68;;;9.60;86.20;;;;;;5011677;28;20128;-67
2023/03/25 01:02:21;;;;;;;0.17;0.17;;;9.60;86.10;;;;;;5008278;28;20035;-66
2023/03/25 01:04:48;;;;;;;0.00;0.00;;;9.60;86.20;;;;;;4998321;28;20045;-67
2023/03/25 01:07:22;;;;;;;0.00;0.00;;;9.60;86.30;;;;;;5010646;28;20050;-67
2023/03/25 01:09:48;;;;;;;0.10;0.10;;;9.60;86.40;;;;;;5011676;28;20455;-66
2023/03/25 01:12:15;;;;;;;0.10;0.10;;;9.60;86.30;;;;;;5012152;28;20038;-66
2023/03/25 01:14:42;;;;;;;0.73;0.73;;;9.60;86.40;;;;;;5011514;28;20054;-67
2023/03/25 01:17:07;;;;;;;0.00;0.00;;;9.60;86.50;;;;;;5010888;28;20519;-66
2023/03/25 01:19:33;;;;;;;0.10;0.10;;;9.50;86.40;;;;;;5009150;28;20049;-67
2023/03/25 01:21:59;;;;;;;0.57;0.57;;;9.60;86.50;;;;;;5011547;28;20061;-66
2023/03/25 01:24:25;;;;;;;0.00;0.00;;;9.60;87.00;;;;;;5011399;28;20053;-66
2023/03/25 01:26:50;;;;;;;0.00;0.00;;;9.60;86.70;;;;;;5011086;28;20038;-67
2023/03/25 01:29:19;;;;;;;0.00;0.00;;;9.50;86.90;;;;;;5011203;28;20041;-66
2023/03/25 01:31:45;;;;;;;0.20;0.20;;;9.50;87.00;;;;;;5009107;28;20082;-66
2023/03/25 01:34:12;;;;;;;0.00;0.00;;;9.50;87.00;;;;;;5011216;28;20073;-67
2023/03/25 01:36:38;;;;;;;0.00;0.00;;;9.50;87.00;;;;;;5011529;28;20034;-67
2023/03/25 01:39:06;;;;;;;0.00;0.00;;;9.40;87.20;;;;;;5010769;28;20042;-67
2023/03/25 01:41:34;;;;;;;0.95;0.95;;;9.40;87.40;;;;;;5010924;28;20082;-67
2023/03/25 01:44:09;;;;;;;0.10;0.10;;;9.30;87.30;;;;;;5011010;28;20826;-67
2023/03/25 01:46:37;;;;;;;1.98;1.05;;;9.40;87.40;;;;;;5011269;28;20042;-67
2023/03/25 01:49:07;;;;;;;0.30;0.30;;;9.40;87.20;;;;;;5019908;28;20060;-66
2023/03/25 01:51:37;;;;;;;0.00;0.00;;;9.40;87.20;;;;;;5030138;28;20057;-67
2023/03/25 01:54:03;;;;;;;0.00;0.00;;;9.40;87.40;;;;;;5029665;28;20576;-67
2023/03/25 01:56:37;;;;;;;0.00;0.00;;;9.50;87.00;;;;;;5030364;28;20076;-67
2023/03/25 01:59:05;;;;;;;0.00;0.00;;;9.50;86.90;;;;;;5029093;28;20053;-66
2023/03/25 02:01:31;;;;;;;0.08;0.08;;;9.40;86.60;;;;;;5030642;28;20091;-67
2023/03/25 02:04:08;;;;;;;0.43;0.43;;;9.40;86.50;;;;;;5022594;28;20037;-67
2023/03/25 02:06:47;;;;;;;0.55;0.55;;;9.40;86.60;;;;;;5028460;28;20491;-67
2023/03/25 02:09:16;;;;;;;0.63;0.63;;;9.40;86.40;;;;;;5030303;28;20040;-66
2023/03/25 02:11:42;;;;;;;0.00;0.00;;;9.50;86.30;;;;;;5029383;28;20045;-66
2023/03/25 02:14:12;;;;;;;0.40;0.40;;;9.50;86.00;;;;;;5011968;28;20049;-67
2023/03/25 02:16:46;;;;;;;0.00;0.00;;;9.60;86.00;;;;;;5030582;28;20541;-66
2023/03/25 02:19:41;;;;;;;0.00;0.00;;;9.40;85.90;;;;;;5022958;28;20559;-67
2023/03/25 02:22:41;;;;;;;0.00;0.00;;;9.50;86.10;;;;;;5030191;28;20417;-66
2023/03/25 02:25:10;;;;;;;0.10;0.10;;;9.50;86.00;;;;;;5005155;28;20054;-67
2023/03/25 02:27:53;;;;;;;0.43;0.43;;;9.40;86.10;;;;;;5028291;28;20379;-67
2023/03/25 02:30:35;;;;;;;0.13;0.13;;;9.30;86.20;;;;;;5029920;28;20457;-67
2023/03/25 02:33:15;;;;;;;0.00;0.00;;;9.40;86.40;;;;;;5016387;28;20863;-67
2023/03/25 02:36:14;;;;;;;0.00;0.00;;;9.30;86.30;;;;;;5023416;28;20056;-67
2023/03/25 02:38:46;;;;;;;2.28;1.65;;;9.20;86.70;;;;;;5020509;28;20045;-67
2023/03/25 02:41:29;;;;;;;1.45;1.08;;;9.20;86.90;;;;;;5015100;28;20050;-67
2023/03/25 02:44:03;;;;;;;0.00;0.00;;;9.20;86.90;;;;;;5029565;28;20159;-66
2023/03/25 02:46:31;;;;;;;0.00;0.00;;;9.30;86.80;;;;;;5020998;28;20042;-66
2023/03/25 02:49:02;;;;;;;0.00;0.00;;;9.20;86.60;;;;;;5023796;28;20050;-66
2023/03/25 02:51:32;;;;;;;0.88;0.88;;;9.30;86.40;;;;;;5023483;28;20092;-66
2023/03/25 02:54:06;;;;;;;1.23;1.17;;;9.30;86.70;;;;;;5022193;28;20050;-66
2023/03/25 02:56:33;;;;;;;0.00;0.00;;;9.30;86.60;;;;;;5028174;28;20045;-67
2023/03/25 02:58:59;;;;;;;0.30;0.30;;;9.30;86.50;;;;;;5024578;28;20452;-66
2023/03/25 03:01:25;;;;;;;3.03;1.85;;;9.40;86.40;;;;;;5029593;28;20068;-66
2023/03/25 03:03:55;;;;;;;0.00;0.00;;;9.50;86.40;;;;;;5027951;28;20427;-66
2023/03/25 03:06:23;;;;;;;0.00;0.00;;;9.40;86.30;;;;;;5027325;28;20033;-66
2023/03/25 03:08:49;;;;;;;0.00;0.00;;;9.50;86.00;;;;;;5018596;28;20053;-66
2023/03/25 03:11:21;;;;;;;0.00;0.00;;;9.40;86.10;;;;;;5021444;28;20049;-66
2023/03/25 03:14:12;;;;;;;0.52;0.52;;;9.40;86.30;;;;;;5028659;28;20414;-66
2023/03/25 03:16:59;;;;;;;0.25;0.25;;;9.40;86.50;;;;;;5029844;28;20080;-66
2023/03/25 03:19:54;;;;;;;2.28;2.08;;;9.40;86.50;;;;;;5010275;28;20517;-66
2023/03/25 03:22:38;;;;;;;0.00;0.00;;;9.50;86.60;;;;;;5021037;28;20119;-66
2023/03/25 03:25:38;;;;;;;0.63;0.63;;;9.50;86.20;;;;;;5027880;28;20103;-67
2023/03/25 03:28:11;;;;;;;0.00;0.00;;;9.50;86.50;;;;;;5028821;28;20087;-67
2023/03/25 03:30:45;;;;;;;0.17;0.17;;;9.50;86.50;;;;;;5029054;28;20119;-67
2023/03/25 03:33:20;;;;;;;0.00;0.00;;;9.50;86.40;;;;;;5028690;28;20106;-67
2023/03/25 03:35:56;;;;;;;0.00;0.00;;;9.50;86.40;;;;;;5009706;28;20050;-67
2023/03/25 03:38:26;;;;;;;0.32;0.32;;;9.50;86.20;;;;;;5011296;28;20160;-66
2023/03/25 03:40:56;;;;;;;0.10;0.10;;;9.50;86.20;;;;;;5028655;28;20041;-67
2023/03/25 03:43:54;;;;;;;0.00;0.00;;;9.50;86.10;;;;;;5028631;28;20037;-66
2023/03/25 03:46:33;;;;;;;0.10;0.10;;;9.50;86.10;;;;;;5011834;28;20140;-67
2023/03/25 03:49:01;;;;;;;1.65;1.23;;;9.50;86.10;;;;;;5028118;28;20061;-66
2023/03/25 03:51:40;;;;;;;0.00;0.00;;;9.60;86.00;;;;;;5028411;28;20042;-67
2023/03/25 03:54:23;;;;;;;2.50;1.85;;;9.60;86.10;;;;;;5028227;28;20042;-67
2023/03/25 03:56:52;;;;;;;0.00;0.00;;;9.60;85.80;;;;;;5017046;28;20037;-67
2023/03/25 03:59:40;;;;;;;0.10;0.10;;;9.50;86.10;;;;;;5023170;28;20046;-67
2023/03/25 04:02:37;;;;;;;0.00;0.00;;;9.50;86.50;;;;;;5013343;28;20045;-66
2023/03/25 04:05:07;;;;;;;15.15;2.13;;;9.50;86.30;;;;;;5002727;28;20769;-66
2023/03/25 04:07:44;;;;;;;0.00;0.00;;;9.50;86.20;;;;;;5014813;28;20053;-67
2023/03/25 04:10:20;;;;;;;0.00;0.00;;;9.60;86.40;;;;;;5032435;28;20052;-67
2023/03/25 04:12:51;;;;;;;0.00;0.00;;;9.50;86.30;;;;;;5022027;28;20038;-67
2023/03/25 04:15:17;;;;;;;0.63;0.63;;;9.50;86.30;;;;;;5028519;28;20045;-67
2023/03/25 04:17:43;;;;;;;0.10;0.10;;;9.40;86.50;;;;;;5029246;28;20084;-67
2023/03/25 04:20:13;;;;;;;0.08;0.08;;;9.50;86.30;;;;;;5023574;28;20041;-67
2023/03/25 04:22:44;;;;;;;0.00;0.00;;;9.60;86.10;;;;;;5029869;28;20574;-67
2023/03/25 04:25:10;;;;;;;0.00;0.00;;;9.50;85.60;;;;;;5021826;28;20584;-66
2023/03/25 04:27:37;;;;;;;0.28;0.28;;;9.50;86.00;;;;;;5013864;28;20042;-67
2023/03/25 04:30:07;;;;;;;0.25;0.25;;;9.40;86.00;;;;;;5020558;28;20049;-66
2023/03/25 04:32:33;;;;;;;0.10;0.10;;;9.40;86.10;;;;;;5012147;28;20053;-66
2023/03/25 04:34:59;;;;;;;0.90;0.85;;;9.40;86.00;;;;;;5018263;28;20045;-67
2023/03/25 04:37:26;;;;;;;0.38;0.38;;;9.50;86.00;;;;;;5012672;28;20049;-67
2023/03/25 04:39:58;;;;;;;0.00;0.00;;;9.30;86.20;;;;;;5031758;28;20041;-67
2023/03/25 04:42:31;;;;;;;0.00;0.00;;;9.30;86.30;;;;;;5024400;28;20052;-67
2023/03/25 04:44:57;;;;;;;5.85;2.53;;;9.30;86.30;;;;;;5029663;28;20049;-67
2023/03/25 04:47:24;;;;;;;0.35;0.35;;;9.40;86.10;;;;;;5031585;28;20037;-67
2023/03/25 04:49:50;;;;;;;0.00;0.00;;;9.30;86.10;;;;;;5031299;28;20050;-67
2023/03/25 04:52:16;;;;;;;13.05;3.15;;;9.20;86.30;;;;;;5031794;28;20048;-68
2023/03/25 04:54:43;;;;;;;0.00;0.00;;;9.30;85.80;;;;;;5031836;28;20041;-67
2023/03/25 04:57:09;;;;;;;1.55;1.17;;;9.30;86.00;;;;;;5031022;28;20069;-68
2023/03/25 04:59:35;;;;;;;0.00;0.00;;;9.40;85.70;;;;;;5030304;28;20127;-67
2023/03/25 05:02:01;;;;;;;0.55;0.55;;;9.30;85.90;;;;;;5028037;28;20495;-67
2023/03/25 05:04:27;;;;;;;0.00;0.00;;;9.20;86.20;;;;;;5014577;28;20073;-67
2023/03/25 05:06:55;;;;;;;0.00;0.00;;;9.20;86.10;;;;;;5030405;28;20502;-67
2023/03/25 05:09:21;;;;;;;0.10;0.10;;;9.20;86.00;;;;;;5029496;28;20060;-68
2023/03/25 05:11:49;;;;;;;0.00;0.00;;;9.10;86.30;;;;;;5023148;28;20045;-68
2023/03/25 05:14:17;;;;;;;0.00;0.00;;;9.10;86.30;;;;;;5017297;28;20052;-67
2023/03/25 05:16:43;;;;;;;0.75;0.75;;;9.10;86.40;;;;;;5015158;28;20038;-68
2023/03/25 05:19:09;;;;;;;1.73;0.85;;;9.10;86.30;;;;;;5019747;28;20056;-68
2023/03/25 05:21:37;;;;;;;0.90;0.85;;;9.20;86.40;;;;;;5021334;28;20046;-68
2023/03/25 05:24:12;;;;;;;0.00;0.00;;;9.20;86.60;;;;;;5016639;28;20041;-67
2023/03/25 05:26:39;;;;;;;3.55;1.52;;;9.10;86.60;;;;;;5027111;28;20058;-68
2023/03/25 05:29:14;;;;;;;0.00;0.00;;;9.20;86.60;;;;;;5028392;28;20111;-68
2023/03/25 05:31:44;;;;;;;1.10;1.10;;;9.10;86.70;;;;;;5028837;28;20037;-68
2023/03/25 05:34:09;;;;;;;0.98;0.98;;;9.20;87.10;;;;;;5010601;28;20053;-68
2023/03/25 05:36:35;;;;;;;1.15;0.75;;;9.20;86.90;;;;;;5025203;28;20068;-68
2023/03/25 05:39:03;;;;;;;0.00;0.00;;;9.20;86.70;;;;;;5028663;28;20135;-68
2023/03/25 05:41:32;;;;;;;0.00;0.00;;;9.20;86.80;;;;;;4986154;28;20184;-67
2023/03/25 05:43:59;;;;;;;0.10;0.10;;;9.10;86.80;;;;;;5028307;28;20038;-68
2023/03/25 05:46:27;;;;;;;0.10;0.10;;;9.20;86.80;;;;;;5019586;28;20135;-68
2023/03/25 05:48:53;;;;;;;0.00;0.00;;;9.30;86.30;;;;;;5027314;28;20054;-68
2023/03/25 05:51:21;;;;;;;0.10;0.10;;;9.30;86.00;;;;;;5028112;28;20064;-67
2023/03/25 05:53:48;;;;;;;0.00;0.00;;;9.20;85.60;;;;;;5029011;28;20052;-68
2023/03/25 05:56:16;;;;;;;0.22;0.22;;;9.20;85.60;;;;;;5022429;28;20037;-68
2023/03/25 05:58:43;;;;;;;0.00;0.00;;;9.30;85.30;;;;;;5007684;28;20533;-68
2023/03/25 06:01:15;;;;;;;0.80;0.80;;;9.30;85.10;;;;;;5021577;28;20041;-68
2023/03/25 06:03:42;;;;;;;2.72;2.05;;;9.20;85.10;;;;;;5028560;28;20406;-68
2023/03/25 06:06:12;;;;;;;0.10;0.10;;;9.20;85.10;;;;;;5010757;28;20560;-68
2023/03/25 06:08:42;;;;;;;0.50;0.50;;;9.30;84.80;;;;;;5010192;28;20056;-68
2023/03/25 06:11:09;;;;;;;0.00;0.00;;;9.20;84.80;;;;;;5016799;28;20061;-68
2023/03/25 06:13:37;;;;;;;0.00;0.00;;;9.20;84.60;;;;;;5015317;28;20038;-68
2023/03/25 06:16:08;;;;;;;0.00;0.00;;;9.30;84.60;;;;;;5025728;28;20139;-68
2023/03/25 06:18:37;;;;;;;0.00;0.00;;;9.40;84.10;;;;;;5026797;28;20057;-68
2023/03/25 06:21:03;;;;;;;2.53;1.05;;;9.30;84.00;;;;;;5015018;28;20045;-68
2023/03/25 06:23:30;;;;;;;5.93;1.73;;;9.30;84.20;;;;;;5018642;28;20326;-68
2023/03/25 06:25:57;;;;;;;0.00;0.00;;;9.40;84.10;;;;;;5011582;28;20498;-68
2023/03/25 06:28:23;;;;;;;0.00;0.00;;;9.40;84.00;;;;;;4980449;28;20046;-69
2023/03/25 06:30:49;;;;;;;0.30;0.30;;;9.40;83.90;;;;;;5023003;28;20091;-68
2023/03/25 06:33:15;;;;;;;2.03;1.88;;;9.30;84.20;;;;;;5008951;28;20129;-68
2023/03/25 06:35:42;;;;;;;2.13;1.13;;;9.40;84.10;;;;;;5012813;28;20044;-69
2023/03/25 06:38:10;;;;;;;0.00;0.00;;;9.40;84.40;;;;;;5015515;28;20046;-68
2023/03/25 06:40:37;;;;;;;0.05;0.05;;;9.40;84.40;;;;;;5022464;28;20554;-68
2023/03/25 06:43:04;;;;;;;0.00;0.00;;;9.30;84.70;;;;;;5025309;28;20049;-68
2023/03/25 06:45:30;;;;;;;0.00;0.00;;;9.30;84.80;;;;;;5025163;28;20075;-68
2023/03/25 06:47:56;;;;;;;0.00;0.00;;;9.30;84.80;;;;;;5022414;28;20042;-67
2023/03/25 06:50:21;;;;;;;1.27;1.17;;;9.20;85.00;;;;;;5024043;28;20061;-68
2023/03/25 06:52:47;;;;;;;1.23;1.13;;;9.20;85.20;;;;;;5022913;28;20137;-68
2023/03/25 06:55:13;;;;;;;0.00;0.00;;;9.20;85.00;;;;;;5022045;28;20049;-67
2023/03/25 06:57:38;;;;;;;0.00;0.00;;;9.20;85.40;;;;;;5022543;28;20038;-67
2023/03/25 07:00:06;;;;;;;0.00;0.00;;;9.20;85.60;;;;;;5025590;28;20514;-66
2023/03/25 07:02:31;;;;;;;0.00;0.00;;;9.20;85.40;;;;;;5026234;28;20152;-65
2023/03/25 07:04:57;;;;;;;0.00;0.00;;;9.20;85.60;;;;;;5025038;28;20136;-67
2023/03/25 07:07:23;;;;;;;0.00;0.00;;;9.20;85.70;;;;;;5025248;28;20107;-66
2023/03/25 07:09:53;;;;;;;0.00;0.00;;;9.20;85.80;;;;;;5027105;28;20087;-68
2023/03/25 07:12:20;;;;;;;0.00;0.00;;;9.20;85.60;;;;;;5026664;28;20107;-67
2023/03/25 07:14:53;;;;;;;0.00;0.00;;;9.20;85.70;;;;;;5021391;28;20081;-68
2023/03/25 07:17:18;;;;;;;0.00;0.00;;;9.10;86.30;;;;;;5025216;28;20051;-69
2023/03/25 07:19:44;;;;;;;0.00;0.00;;;9.20;86.10;;;;;;5027770;28;20054;-69
2023/03/25 07:22:10;;;;;;;0.00;0.00;;;9.10;86.40;;;;;;5027468;28;20385;-67
2023/03/25 07:24:35;;;;;;;0.00;0.00;;;9.00;86.90;;;;;;5027694;28;20046;-68
2023/03/25 07:27:01;;;;;;;0.00;0.00;;;8.90;87.20;;;;;;5026996;28;20066;-67
2023/03/25 07:29:27;;;;;;;0.00;0.00;;;8.90;87.10;;;;;;5026970;28;20498;-67
2023/03/25 07:31:52;;;;;;;0.20;0.20;;;8.90;87.50;;;;;;5025822;28;20056;-67
2023/03/25 07:34:18;;;;;;;0.00;0.00;;;8.80;87.70;;;;;;5027178;28;20045;-68
2023/03/25 07:36:43;;;;;;;0.00;0.00;;;8.80;87.90;;;;;;5024934;28;20041;-67
2023/03/25 07:39:09;;;;;;;0.47;0.47;;;8.70;88.20;;;;;;5026215;28;20089;-65
2023/03/25 07:41:35;;;;;;;0.00;0.00;;;8.80;87.90;;;;;;5026667;28;20042;-65
2023/03/25 07:44:00;;;;;;;0.00;0.00;;;8.90;88.00;;;;;;5024795;28;20037;-65
2023/03/25 07:46:26;;;;;;;0.00;0.00;;;8.80;88.20;;;;;;5010221;28;20041;-64
2023/03/25 07:48:51;;;;;;;0.00;0.00;;;8.80;88.20;;;;;;5023732;28;20140;-64
2023/03/25 07:51:17;;;;;;;0.00;0.00;;;8.70;88.50;;;;;;5025582;28;20132;-64
2023/03/25 07:53:43;;;;;;;0.10;0.10;;;8.70;88.60;;;;;;5026704;28;20079;-64
2023/03/25 07:56:10;;;;;;;0.25;0.25;;;8.80;88.70;;;;;;5027207;28;20562;-64
2023/03/25 07:58:36;;;;;;;0.00;0.00;;;8.90;88.10;;;;;;5026209;28;20037;-64
2023/03/25 08:01:02;;;;;;;0.15;0.15;;;8.90;88.00;;;;;;5026856;28;20052;-64
2023/03/25 08:03:27;;;;;;;0.00;0.00;;;8.90;88.10;;;;;;5021339;28;20137;-64
2023/03/25 08:05:53;;;;;;;0.20;0.20;;;9.00;87.90;;;;;;5026004;28;20061;-64
2023/03/25 08:08:19;;;;;;;0.00;0.00;;;8.90;88.10;;;;;;5010171;28;20038;-64
2023/03/25 08:10:46;;;;;;;0.00;0.00;;;8.90;88.30;;;;;;5008331;28;20077;-64
2023/03/25 08:13:13;;;;;;;0.00;0.00;;;9.00;88.40;;;;;;5028088;28;20510;-64
2023/03/25 08:15:39;;;;;;;0.68;0.43;;;8.90;88.50;;;;;;5027527;28;20042;-64
2023/03/25 08:18:06;;;;;;;0.10;0.10;;;9.00;88.50;;;;;;5026577;28;20084;-64
2023/03/25 08:20:35;;;;;;;0.00;0.00;;;9.10;88.20;;;;;;5022798;28;20379;-63
2023/03/25 08:23:01;;;;;;;0.08;0.08;;;9.10;87.90;;;;;;5000344;28;20057;-64
2023/03/25 08:25:28;;;;;;;0.00;0.00;;;9.10;87.90;;;;;;5026481;28;20033;-65
2023/03/25 08:27:54;;;;;;;1.65;1.55;;;9.10;88.10;;;;;;5023417;28;20111;-64
2023/03/25 08:30:21;;;;;;;0.63;0.63;;;9.20;88.00;;;;;;5026143;28;20135;-65
2023/03/25 08:32:53;;;;;;;0.00;0.00;;;9.20;87.80;;;;;;5018649;28;20636;-65
2023/03/25 08:35:19;;;;;;;;;;;9.30;87.50;;;;;;5027050;28;20053;-64
2023/03/25 08:37:45;;;;;;;3.10;2.60;;;9.50;87.20;;;;;;5028077;28;19925;-64
2023/03/25 08:40:10;;;;;;;0.00;0.00;;;9.60;86.10;;;;;;5027393;28;20045;-64
2023/03/25 08:42:36;;;;;;;0.10;0.10;;;9.70;85.60;;;;;;5013231;28;20080;-64
2023/03/25 08:45:04;;;;;;;0.00;0.00;;;9.70;84.80;;;;;;5021604;28;20091;-64
2023/03/25 08:47:30;;;;;;;0.03;0.03;;;9.70;84.60;;;;;;5014978;28;20084;-64
2023/03/25 08:49:56;;;;;;;0.10;0.10;;;9.70;84.20;;;;;;5030424;28;20417;-64
2023/03/25 08:52:22;;;;;;;0.00;0.00;;;9.70;84.20;;;;;;5031926;28;20042;-65
2023/03/25 08:54:48;;;;;;;0.00;0.00;;;9.80;83.70;;;;;;5029708;28;20153;-65
2023/03/25 08:57:13;;;;;;;0.00;0.00;;;9.90;84.40;;;;;;5031718;28;20129;-65
2023/03/25 08:59:39;;;;;;;0.90;0.90;;;10.00;84.20;;;;;;5025217;28;20045;-64
2023/03/25 09:02:05;;;;;;;0.08;0.08;;;10.00;83.00;;;;;;5026942;28;20097;-64
2023/03/25 09:04:31;;;;;;;0.63;0.63;;;10.00;83.60;;;;;;5023743;28;20069;-65
2023/03/25 09:06:57;;;;;;;0.00;0.00;;;10.00;83.40;;;;;;5025285;28;20602;-65
2023/03/25 09:09:26;;;;;;;0.00;0.00;;;10.10;83.40;;;;;;5024415;28;20355;-63
2023/03/25 09:11:51;;;;;;;1.42;1.33;;;10.10;83.10;;;;;;5023982;28;20171;-65
2023/03/25 09:14:17;;;;;;;0.00;0.00;;;10.00;83.10;;;;;;5003644;28;20461;-64
2023/03/25 09:16:43;;;;;;;0.00;0.00;;;10.10;83.20;;;;;;5022455;28;20130;-64
2023/03/25 09:19:09;;;;;;;0.00;0.00;;;10.10;83.00;;;;;;5011985;28;20144;-64
2023/03/25 09:21:35;;;;;;;0.10;0.10;;;10.00;82.80;;;;;;5028304;28;20462;-64
2023/03/25 09:24:00;;;;;;;0.10;0.10;;;10.00;83.00;;;;;;5029155;28;20057;-65
2023/03/25 09:26:26;;;;;;;0.10;0.10;;;10.10;82.90;;;;;;5026111;28;20037;-65
2023/03/25 09:28:55;;;;;;;0.00;0.00;;;10.00;82.90;;;;;;5026589;28;20045;-65
2023/03/25 09:31:22;;;;;;;0.10;0.10;;;10.00;83.10;;;;;;5027745;28;20114;-64
2023/03/25 09:33:47;;;;;;;0.00;0.00;;;10.00;83.30;;;;;;5021165;28;20441;-64
2023/03/25 09:36:13;;;;;;;0.20;0.20;;;10.10;82.40;;;;;;5024257;28;20041;-64
2023/03/25 09:38:39;;;;;;;0.22;0.22;;;10.10;82.80;;;;;;5011610;28;20038;-64
2023/03/25 09:41:25;;;;;;;1.10;0.90;;;10.00;82.40;;;;;;5017744;28;20425;-64
2023/03/25 09:44:03;;;;;;;0.10;0.10;;;10.10;82.30;;;;;;5013097;28;20133;-65
2023/03/25 09:46:28;;;;;;;0.00;0.00;;;10.10;81.90;;;;;;5015451;28;20096;-64
2023/03/25 09:48:55;;;;;;;0.17;0.17;;;10.10;82.30;;;;;;5011513;28;20050;-64
2023/03/25 09:51:30;;;;;;;0.10;0.10;;;10.30;82.30;;;;;;4993813;28;20128;-64
2023/03/25 09:54:20;;;;;;;0.00;0.00;;;10.30;81.90;;;;;;5003156;28;20042;-64
2023/03/25 09:56:47;;;;;;;0.50;0.50;;;10.30;82.00;;;;;;5022523;28;20945;-64
2023/03/25 09:59:22;;;;;;;1.02;0.22;;;10.40;81.80;;;;;;5017846;28;20115;-64
2023/03/25 10:02:13;;;;;;;0.05;0.05;;;10.40;81.50;;;;;;5026955;28;20057;-64
2023/03/25 10:04:39;;;;;;;0.00;0.00;;;10.40;81.10;;;;;;5015838;28;20058;-64
2023/03/25 10:07:38;;;;;;;0.10;0.10;;;10.40;80.10;;;;;;5026155;28;20418;-64
2023/03/25 10:10:28;;;;;;;2.90;1.95;;;10.40;81.20;;;;;;5027838;28;20048;-65
2023/03/25 10:13:16;;;;;;;0.30;0.30;;;10.50;80.80;;;;;;5027879;28;20120;-65
2023/03/25 10:16:29;;;;;;;0.00;0.00;;;10.60;80.30;;;;;;5026758;28;20096;-64
2023/03/25 10:19:03;;;;;;;0.00;0.00;;;10.60;80.40;;;;;;4930191;29;20047;-65
2023/03/25 10:21:42;;;;;;;0.10;0.10;;;10.50;81.00;;;;;;5014453;28;20057;-65
2023/03/25 10:24:43;;;;;;;0.40;0.40;;;10.60;80.20;;;;;;5029902;28;20045;-65
2023/03/25 10:27:41;;;;;;;0.88;0.50;;;10.60;80.00;;;;;;5025335;28;20061;-65
2023/03/25 10:30:12;;;;;;;0.00;0.00;;;10.60;80.50;;;;;;5028900;28;20092;-65
2023/03/25 10:32:49;;;;;;;0.40;0.40;;;10.80;80.50;;;;;;5029638;28;20117;-65
2023/03/25 10:35:23;;;;;;;0.00;0.00;;;10.90;79.80;;;;;;5023671;28;20045;-65
2023/03/25 10:37:52;;;;;;;0.00;0.00;;;10.90;79.40;;;;;;5010247;28;20038;-65
2023/03/25 10:40:32;;;;;;;0.00;0.00;;;10.90;79.80;;;;;;5020210;28;20124;-65
2023/03/25 10:43:19;;;;;;;0.00;0.00;;;11.00;79.30;;;;;;5010216;28;20053;-65
2023/03/25 10:45:46;;;;;;;0.00;0.00;;;11.10;78.70;;;;;;5017338;28;20050;-65
2023/03/25 10:48:22;;;;;;;0.00;0.00;;;11.10;77.80;;;;;;4995339;28;20045;-65
2023/03/25 10:50:51;;;;;;;0.00;0.00;;;11.20;77.70;;;;;;5015371;28;20058;-66
2023/03/25 10:53:25;;;;;;;0.00;0.00;;;11.30;77.30;;;;;;5019383;28;20474;-66
2023/03/25 10:56:12;;;;;;;0.28;0.28;;;11.10;77.70;;;;;;5027191;28;20099;-65
2023/03/25 10:58:39;;;;;;;0.00;0.00;;;11.20;77.70;;;;;;5029120;28;20447;-66
2023/03/25 11:01:19;;;;;;;0.10;0.10;;;11.20;77.80;;;;;;5029197;28;20045;-66
2023/03/25 11:03:50;;;;;;;4.45;1.25;;;11.10;77.90;;;;;;5027720;28;20037;-66
2023/03/25 11:06:29;;;;;;;0.20;0.20;;;11.10;78.20;;;;;;5029217;28;20045;-66
2023/03/25 11:09:17;;;;;;;0.00;0.00;;;11.10;78.20;;;;;;5019469;28;20126;-66
2023/03/25 11:11:43;;;;;;;0.80;0.80;;;11.10;77.90;;;;;;5019513;28;20495;-65
2023/03/25 11:14:10;;;;;;;0.00;0.00;;;11.10;77.70;;;;;;5028818;28;20534;-65
2023/03/25 11:16:42;;;;;;;1.25;1.25;;;11.00;77.60;;;;;;5029459;28;20127;-65
2023/03/25 11:19:18;;;;;;;0.00;0.00;;;11.00;78.40;;;;;;5024081;28;20054;-65
2023/03/25 11:21:47;;;;;;;0.15;0.15;;;11.00;78.70;;;;;;5020287;28;20562;-65
2023/03/25 11:24:16;;;;;;;0.00;0.00;;;11.10;77.60;;;;;;5028955;28;20072;-65
2023/03/25 11:26:47;;;;;;;0.32;0.32;;;11.20;78.50;;;;;;5028932;28;20473;-65
2023/03/25 11:29:17;;;;;;;1.33;0.95;;;11.20;77.80;;;;;;5027435;28;20060;-65
2023/03/25 11:31:54;;;;;;;11.80;3.83;;;11.10;77.20;;;;;;5029470;28;20041;-66
2023/03/25 11:34:21;;;;;;;0.00;0.00;;;11.20;77.50;;;;;;4994405;28;20192;-68
2023/03/25 11:36:57;;;;;;;0.47;0.47;;;11.30;78.00;;;;;;5011012;28;20190;-71
2023/03/25 11:39:31;;;;;;;0.00;0.00;;;11.30;78.50;;;;;;5028462;28;20123;-65
2023/03/25 11:41:57;;;;;;;0.00;0.00;;;11.60;77.20;;;;;;5029091;28;20041;-65
2023/03/25 11:44:30;;;;;;;0.00;0.00;;;11.60;76.70;;;;;;5028709;28;20084;-65
2023/03/25 11:47:01;;;;;;;0.00;0.00;;;11.70;76.30;;;;;;5028670;28;20046;-64
2023/03/25 11:49:28;;;;;;;0.75;0.75;;;11.60;75.80;;;;;;5028319;28;20786;-65
2023/03/25 11:52:24;;;;;;;0.15;0.15;;;11.60;76.40;;;;;;5028615;28;20081;-64
2023/03/25 11:54:53;;;;;;;0.00;0.00;;;11.70;76.10;;;;;;5026782;28;20091;-64
2023/03/25 11:57:25;;;;;;;0.00;0.00;;;11.70;76.80;;;;;;5027846;28;20049;-64
2023/03/25 12:00:05;;;;;;;0.03;0.03;;;11.70;75.70;;;;;;5028322;28;20054;-64
2023/03/25 12:02:36;;;;;;;0.57;0.57;;;11.90;76.20;;;;;;5010895;28;20517;-65
2023/03/25 12:05:11;;;;;;;0.00;0.00;;;11.90;75.10;;;;;;5027587;28;20041;-64
2023/03/25 12:07:48;;;;;;;0.75;0.70;;;11.90;74.70;;;;;;5019956;28;20060;-64
2023/03/25 12:10:34;;;;;;;0.00;0.00;;;11.80;75.80;;;;;;5012693;28;20064;-64
2023/03/25 12:13:12;;;;;;;0.15;0.15;;;11.80;75.30;;;;;;5017988;28;20050;-64
2023/03/25 12:16:01;;;;;;;0.10;0.10;;;11.80;75.50;;;;;;5028639;28;20065;-64
2023/03/25 12:18:46;;;;;;;0.00;0.00;;;11.80;75.00;;;;;;5028659;28;20049;-64
2023/03/25 12:21:24;;;;;;;1.25;0.80;;;11.80;74.80;;;;;;5028733;28;20042;-64
2023/03/25 12:24:51;;;;;;;0.00;0.00;;;11.70;75.40;;;;;;5030584;28;20120;-65
2023/03/25 12:27:35;;;;;;;0.03;0.03;;;11.70;76.00;;;;;;4932319;29;20036;-64
2023/03/25 12:30:04;;;;;;;0.00;0.00;;;11.70;75.50;;;;;;4929350;29;20557;-63
2023/03/25 12:33:03;;;;;;;0.20;0.20;;;11.70;76.40;;;;;;4984503;28;20049;-64
2023/03/25 12:35:42;;;;;;;0.00;0.00;;;11.70;77.30;;;;;;5028806;28;20168;-64
2023/03/25 12:38:26;;;;;;;0.00;0.00;;;11.60;76.50;;;;;;5031305;28;20056;-64
2023/03/25 12:40:54;;;;;;;0.00;0.00;;;11.60;75.60;;;;;;5026723;28;20048;-64
2023/03/25 12:43:27;;;;;;;1.35;1.25;;;11.50;75.50;;;;;;5018501;28;20057;-64
2023/03/25 12:45:58;;;;;;;0.00;0.00;;;11.30;76.00;;;;;;5020980;28;20409;-64
2023/03/25 12:48:38;;;;;;;0.00;0.00;;;11.10;77.10;;;;;;5018946;28;20045;-63
2023/03/25 12:51:41;;;;;;;0.50;0.47;;;11.00;77.70;;;;;;5026741;28;20081;-64
2023/03/25 12:54:30;;;;;;;0.00;0.00;;;11.00;77.70;;;;;;5024928;28;20184;-64
2023/03/25 12:57:08;;;;;;;0.00;0.00;;;11.10;77.10;;;;;;5018252;28;20042;-63
2023/03/25 12:59:50;;;;;;;0.00;0.00;;;11.10;76.80;;;;;;5021817;28;20080;-64
2023/03/25 13:02:39;;;;;;;0.25;0.25;;;11.20;76.70;;;;;;5022685;28;20052;-64
2023/03/25 13:05:13;;;;;;;0.00;0.00;;;11.20;76.60;;;;;;5020728;28;20049;-64
2023/03/25 13:07:46;;;;;;;0.00;0.00;;;11.30;77.20;;;;;;5001725;28;20491;-64
2023/03/25 13:10:18;;;;;;;0.00;0.00;;;11.40;77.00;;;;;;5020978;28;20116;-64
2023/03/25 13:12:47;;;;;;;8.85;1.35;;;11.40;77.10;;;;;;5021744;28;20403;-64
2023/03/25 13:15:20;;;;;;;0.00;0.00;;;11.40;77.10;;;;;;5023780;28;20049;-64